createdAt,value
2018-12-04T00:01:51.359Z,69.07
2018-12-04T00:04:55.956Z,75.53
2018-12-04T00:08:00.522Z,67.90
2018-12-04T00:11:05.134Z,75.20
2018-12-04T00:14:09.662Z,70.97
2018-12-04T00:17:14.206Z,91.63
2018-12-04T00:20:18.759Z,82.00
2018-12-04T00:23:23.523Z,107.43
2018-12-04T00:26:28.131Z,117.93
2018-12-04T00:29:32.774Z,88.07
2018-12-04T00:32:37.370Z,76.20
2018-12-04T00:35:41.913Z,91.00
2018-12-04T00:38:46.438Z,72.93
2018-12-04T00:41:51.030Z,88.80
2018-12-04T00:44:55.618Z,85.13
2018-12-04T00:48:00.155Z,74.60
2018-12-04T00:51:04.757Z,96.97
2018-12-04T00:54:09.413Z,94.27
2018-12-04T00:57:13.946Z,82.33
2018-12-04T01:00:18.589Z,66.63
2018-12-04T01:03:23.118Z,72.97
2018-12-04T01:06:27.717Z,59.90
2018-12-04T01:09:32.239Z,77.40
2018-12-04T01:12:36.767Z,60.10
2018-12-04T01:15:41.299Z,59.87
2018-12-04T01:18:45.886Z,67.73
2018-12-04T01:21:50.452Z,56.57
2018-12-04T01:24:55.090Z,58.73
2018-12-04T01:27:59.662Z,54.83
2018-12-04T01:31:04.209Z,68.60
2018-12-04T01:34:08.909Z,58.20
2018-12-04T01:37:13.536Z,58.27
2018-12-04T01:40:18.087Z,66.37
2018-12-04T01:43:22.745Z,116.10
2018-12-04T01:46:27.330Z,70.43
2018-12-04T01:49:31.865Z,79.70
2018-12-04T01:52:36.453Z,114.07
2018-12-04T01:55:41.007Z,68.33
2018-12-04T01:58:45.517Z,60.53
2018-12-04T02:01:50.110Z,58.30
2018-12-04T02:04:54.618Z,66.43
2018-12-04T02:07:59.238Z,114.07
2018-12-04T02:11:03.797Z,55.27
2018-12-04T02:14:08.362Z,91.67
2018-12-04T02:17:12.930Z,58.83
2018-12-04T02:20:17.514Z,66.27
2018-12-04T02:23:22.218Z,85.33
2018-12-04T02:26:26.815Z,76.60
2018-12-04T02:29:31.349Z,56.93
2018-12-04T02:32:35.933Z,59.73
2018-12-04T02:35:40.476Z,58.30
2018-12-04T02:38:45.006Z,53.00
2018-12-04T02:41:49.642Z,52.27
2018-12-04T02:44:54.458Z,55.77
2018-12-04T02:47:58.998Z,55.23
2018-12-04T02:51:03.647Z,55.23
2018-12-04T02:54:08.390Z,55.20
2018-12-04T02:57:12.926Z,59.07
2018-12-04T03:00:17.558Z,86.10
2018-12-04T03:03:22.126Z,61.90
2018-12-04T03:06:26.680Z,57.00
2018-12-04T03:09:31.237Z,56.73
2018-12-04T03:12:35.760Z,57.13
2018-12-04T03:15:40.477Z,56.63
2018-12-04T03:18:44.990Z,57.77
2018-12-04T03:21:49.538Z,58.07
2018-12-04T03:24:54.160Z,57.40
2018-12-04T03:27:58.742Z,54.23
2018-12-04T03:31:03.327Z,59.77
2018-12-04T03:34:07.935Z,58.67
2018-12-04T03:37:12.470Z,83.07
2018-12-04T03:40:16.998Z,63.57
2018-12-04T03:43:21.672Z,120.87
2018-12-04T03:46:26.257Z,89.00
2018-12-04T03:49:30.906Z,102.40
2018-12-04T03:52:35.466Z,72.53
2018-12-04T03:55:40.022Z,58.30
2018-12-04T03:58:44.562Z,59.50
2018-12-04T04:01:49.108Z,65.33
2018-12-04T04:04:53.651Z,183.50
2018-12-04T04:07:58.177Z,153.67
2018-12-04T04:11:02.778Z,81.17
2018-12-04T04:14:07.299Z,88.73
2018-12-04T04:17:11.874Z,71.60
2018-12-04T04:20:16.514Z,63.50
2018-12-04T04:23:21.190Z,66.10
2018-12-04T04:26:25.929Z,59.07
2018-12-04T04:30:05.449Z,69.77
2018-12-04T04:33:09.974Z,99.97
2018-12-04T04:36:16.601Z,61.53
2018-12-04T04:39:21.133Z,56.90
2018-12-04T04:42:25.749Z,51.90
2018-12-04T04:45:30.250Z,44.50
2018-12-04T04:48:34.736Z,49.90
2018-12-04T04:51:39.291Z,50.00
2018-12-04T04:54:45.890Z,48.50
2018-12-04T04:57:50.437Z,52.53
2018-12-04T05:00:54.953Z,63.37
2018-12-04T05:03:59.511Z,49.20
2018-12-04T05:07:04.146Z,49.87
2018-12-04T05:10:08.739Z,72.40
2018-12-04T05:13:13.257Z,50.80
2018-12-04T05:16:18.057Z,48.00
2018-12-04T05:19:22.644Z,46.20
2018-12-04T05:22:27.240Z,43.13
2018-12-04T05:25:31.859Z,46.47
2018-12-04T05:28:36.366Z,47.97
2018-12-04T05:31:40.878Z,44.50
2018-12-04T05:34:45.403Z,46.00
2018-12-04T05:37:50.049Z,44.83
2018-12-04T05:40:54.651Z,47.97
2018-12-04T05:43:59.157Z,46.63
2018-12-04T05:47:03.706Z,49.70
2018-12-04T05:50:08.893Z,48.37
2018-12-04T05:53:24.487Z,48.50
2018-12-04T05:56:29.090Z,49.90
2018-12-04T05:59:33.685Z,51.20
2018-12-04T06:02:38.216Z,53.07
2018-12-04T06:05:42.805Z,55.50
2018-12-04T06:08:47.328Z,62.67
2018-12-04T06:11:52.050Z,73.30
2018-12-04T06:14:56.573Z,90.63
2018-12-04T06:18:01.182Z,87.00
2018-12-04T06:21:05.854Z,87.97
2018-12-04T06:24:10.379Z,93.90
2018-12-04T06:27:14.915Z,94.10
2018-12-04T06:30:19.516Z,96.97
2018-12-04T06:33:24.073Z,96.53
2018-12-04T06:36:28.618Z,94.00
2018-12-04T06:39:33.150Z,92.57
2018-12-04T06:42:37.685Z,96.53
2018-12-04T06:45:42.236Z,91.53
2018-12-04T06:48:46.777Z,91.67
2018-12-04T06:51:51.352Z,92.30
2018-12-04T06:54:55.853Z,94.13
2018-12-04T06:58:00.439Z,89.80
2018-12-04T07:01:05.828Z,88.20
2018-12-04T07:04:10.318Z,89.80
2018-12-04T07:07:14.834Z,94.63
2018-12-04T07:10:19.454Z,83.40
2018-12-04T07:13:24.007Z,85.13
2018-12-04T07:16:28.566Z,79.37
2018-12-04T07:19:33.101Z,82.43
2018-12-04T07:22:37.715Z,92.43
2018-12-04T07:25:42.232Z,98.80
2018-12-04T07:28:46.817Z,90.87
2018-12-04T07:31:51.371Z,85.50
2018-12-04T07:34:55.941Z,91.77
2018-12-04T07:38:00.483Z,93.53
2018-12-04T07:41:05.012Z,99.80
2018-12-04T07:44:09.611Z,115.03
2018-12-04T07:47:14.187Z,120.93
2018-12-04T07:50:18.753Z,135.10
2018-12-04T07:53:23.358Z,176.53
2018-12-04T07:56:27.867Z,160.93
2018-12-04T07:59:32.387Z,167.90
2018-12-04T08:02:36.986Z,167.37
2018-12-04T08:05:41.629Z,165.43
2018-12-04T08:08:46.178Z,163.83
2018-12-04T08:11:50.829Z,158.37
2018-12-04T08:14:55.414Z,162.23
2018-12-04T08:17:59.953Z,157.47
2018-12-04T08:21:04.534Z,150.83
2018-12-04T08:24:09.048Z,144.73
2018-12-04T08:27:18.093Z,141.90
2018-12-04T08:30:22.714Z,137.07
2018-12-04T08:33:27.385Z,123.70
2018-12-04T08:36:31.896Z,120.83
2018-12-04T08:39:36.410Z,117.70
2018-12-04T08:42:40.926Z,120.53
2018-12-04T08:45:45.520Z,123.43
2018-12-04T08:48:50.159Z,117.03
2018-12-04T08:51:54.718Z,116.07
2018-12-04T08:54:59.355Z,113.73
2018-12-04T08:58:03.922Z,109.67
2018-12-04T09:01:08.517Z,108.63
2018-12-04T09:04:13.042Z,106.13
2018-12-04T09:07:17.664Z,101.97
2018-12-04T09:10:22.206Z,97.00
2018-12-04T09:13:26.870Z,110.57
2018-12-04T09:16:31.525Z,83.47
2018-12-04T09:19:36.305Z,86.23
2018-12-04T09:22:41.030Z,82.43
2018-12-04T09:25:45.816Z,76.87
2018-12-04T09:28:50.546Z,72.93
2018-12-04T09:31:55.323Z,75.90
2018-12-04T09:34:59.990Z,72.57
2018-12-04T09:38:04.568Z,67.63
2018-12-04T09:41:09.164Z,56.73
2018-12-04T09:44:13.817Z,55.23
2018-12-04T09:47:18.389Z,56.17
2018-12-04T09:50:23.061Z,54.23
2018-12-04T09:53:27.641Z,51.13
2018-12-04T09:56:32.150Z,49.17
2018-12-04T09:59:39.439Z,53.27
2018-12-04T10:02:43.367Z,50.70
2018-12-04T10:05:47.966Z,54.87
2018-12-04T10:08:52.475Z,65.63
2018-12-04T10:11:57.034Z,52.63
2018-12-04T10:15:01.542Z,47.60
2018-12-04T10:18:06.407Z,54.10
2018-12-04T10:21:11.010Z,41.80
2018-12-04T10:24:15.611Z,42.03
2018-12-04T10:27:20.196Z,42.70
2018-12-04T10:30:24.778Z,46.37
2018-12-04T10:33:29.310Z,46.07
2018-12-04T10:36:33.910Z,47.27
2018-12-04T10:39:38.444Z,46.13
2018-12-04T10:42:42.957Z,43.63
2018-12-04T10:45:47.499Z,43.00
2018-12-04T10:48:52.024Z,41.73
2018-12-04T10:51:56.642Z,40.97
2018-12-04T10:55:01.215Z,40.13
2018-12-04T10:58:06.187Z,42.23
2018-12-04T11:01:15.768Z,42.80
2018-12-04T11:04:20.352Z,42.83
2018-12-04T11:07:24.983Z,43.97
2018-12-04T11:10:29.510Z,44.50
2018-12-04T11:13:34.169Z,43.27
2018-12-04T11:16:41.702Z,41.13
2018-12-04T11:19:46.255Z,42.10
2018-12-04T11:22:50.938Z,40.30
2018-12-04T11:25:55.516Z,46.27
2018-12-04T11:29:00.145Z,43.63
2018-12-04T11:32:04.698Z,55.70
2018-12-04T11:35:09.363Z,44.27
2018-12-04T11:38:13.958Z,33.93
2018-12-04T11:41:18.484Z,32.87
2018-12-04T11:44:24.120Z,36.23
2018-12-04T11:47:29.259Z,40.03
2018-12-04T11:50:33.807Z,39.53
2018-12-04T11:53:38.409Z,40.33
2018-12-04T11:56:42.914Z,53.67
2018-12-04T11:59:47.431Z,41.43
2018-12-04T12:02:52.103Z,42.83
2018-12-04T12:05:56.710Z,41.37
2018-12-04T12:09:04.145Z,39.90
2018-12-04T12:12:10.694Z,38.00
2018-12-04T12:15:17.974Z,40.20
2018-12-04T12:18:21.789Z,40.27
2018-12-04T12:21:26.374Z,37.97
2018-12-04T12:24:30.940Z,37.33
2018-12-04T12:27:36.046Z,36.43
2018-12-04T12:30:40.624Z,35.53
2018-12-04T12:33:45.189Z,33.03
2018-12-04T12:36:49.708Z,35.67
2018-12-04T12:39:54.326Z,37.43
2018-12-04T12:42:58.946Z,36.50
2018-12-04T12:46:03.632Z,37.10
2018-12-04T12:49:08.146Z,36.80
2018-12-04T12:52:14.836Z,37.10
2018-12-04T12:55:19.337Z,39.13
2018-12-04T12:58:23.846Z,39.73
2018-12-04T13:01:28.411Z,35.73
2018-12-04T13:04:32.984Z,45.30
2018-12-04T13:07:37.489Z,34.93
2018-12-04T13:10:42.051Z,38.17
2018-12-04T13:13:46.607Z,35.37
2018-12-04T13:16:51.169Z,35.73
2018-12-04T13:19:55.698Z,37.37
2018-12-04T13:23:00.209Z,36.90
2018-12-04T13:26:04.861Z,45.57
2018-12-04T13:29:09.461Z,37.57
2018-12-04T13:32:13.992Z,40.03
2018-12-04T13:35:18.546Z,36.33
2018-12-04T13:38:23.925Z,36.57
2018-12-04T13:41:28.451Z,36.43
2018-12-04T13:44:33.125Z,35.93
2018-12-04T13:47:45.430Z,35.57
2018-12-04T13:50:50.128Z,38.20
2018-12-04T13:53:54.673Z,40.37
2018-12-04T13:56:59.214Z,103.90
2018-12-04T14:00:04.258Z,65.47
2018-12-04T14:03:08.999Z,55.43
2018-12-04T14:06:13.567Z,48.87
2018-12-04T14:09:18.269Z,48.73
2018-12-04T14:12:22.814Z,54.27
2018-12-04T14:15:27.500Z,66.40
2018-12-04T14:18:33.039Z,78.20
2018-12-04T14:21:37.718Z,62.90
2018-12-04T14:24:42.391Z,50.33
2018-12-04T14:27:49.350Z,52.07
2018-12-04T14:30:54.134Z,54.57
2018-12-04T14:33:58.774Z,90.63
2018-12-04T14:37:03.555Z,94.27
2018-12-04T14:40:09.096Z,67.67
2018-12-04T14:43:14.798Z,58.40
2018-12-04T14:46:19.368Z,62.00
2018-12-04T14:49:24.827Z,65.10
2018-12-04T14:52:29.472Z,71.40
2018-12-04T14:55:34.158Z,67.70
2018-12-04T14:58:38.799Z,66.23
2018-12-04T15:01:43.367Z,67.67
2018-12-04T15:04:48.121Z,71.77
2018-12-04T15:07:52.997Z,71.97
2018-12-04T15:10:57.725Z,68.47
2018-12-04T15:14:02.308Z,72.97
2018-12-04T15:17:06.856Z,72.00
2018-12-04T15:20:11.544Z,93.63
2018-12-04T15:23:16.194Z,85.90
2018-12-04T15:26:20.751Z,66.60
2018-12-04T15:29:25.349Z,67.53
2018-12-04T15:32:29.967Z,60.63
2018-12-04T15:35:34.464Z,66.77
2018-12-04T15:38:39.064Z,65.43
2018-12-04T15:41:46.290Z,64.53
2018-12-04T15:44:50.168Z,68.03
2018-12-04T15:47:54.722Z,70.40
2018-12-04T15:51:00.098Z,63.17
2018-12-04T15:54:05.155Z,96.07
2018-12-04T15:57:09.709Z,94.23
2018-12-04T16:00:14.459Z,86.87
2018-12-04T16:03:20.066Z,83.17
2018-12-04T16:06:24.659Z,81.37
2018-12-04T16:09:30.041Z,83.43
2018-12-04T16:12:34.682Z,79.90
2018-12-04T16:15:39.286Z,80.73
2018-12-04T16:18:44.015Z,82.37
2018-12-04T16:21:48.513Z,84.27
2018-12-04T16:24:53.137Z,96.03
2018-12-04T16:27:57.662Z,148.30
2018-12-04T16:31:02.244Z,157.47
2018-12-04T16:34:06.791Z,193.17
2018-12-04T16:37:11.333Z,141.43
2018-12-04T16:40:15.849Z,126.73
2018-12-04T16:43:20.745Z,81.23
2018-12-04T16:46:25.295Z,81.43
2018-12-04T16:49:29.870Z,77.83
2018-12-04T16:52:34.745Z,105.33
2018-12-04T16:55:39.272Z,87.03
2018-12-04T16:58:43.847Z,84.53
2018-12-04T17:01:48.401Z,86.87
2018-12-04T17:04:52.969Z,93.13
2018-12-04T17:07:57.565Z,90.30
2018-12-04T17:11:02.099Z,116.00
2018-12-04T17:14:06.677Z,115.07
2018-12-04T17:17:11.226Z,101.73
2018-12-04T17:20:15.844Z,91.93
2018-12-04T17:23:20.426Z,86.53
2018-12-04T17:26:25.071Z,87.63
2018-12-04T17:29:30.612Z,96.97
2018-12-04T17:32:35.202Z,94.30
2018-12-04T17:35:40.174Z,91.60
2018-12-04T17:38:44.794Z,103.40
2018-12-04T17:41:49.378Z,96.93
2018-12-04T17:44:53.909Z,123.50
2018-12-04T17:47:58.546Z,118.43
2018-12-04T17:51:03.225Z,98.97
2018-12-04T17:54:07.771Z,117.27
2018-12-04T17:57:12.455Z,113.03
2018-12-04T18:00:19.061Z,103.77
2018-12-04T18:03:23.582Z,121.10
2018-12-04T18:06:28.265Z,99.17
2018-12-04T18:09:32.870Z,100.87
2018-12-04T18:12:39.441Z,102.40
2018-12-04T18:15:46.020Z,106.43
2018-12-04T18:18:50.641Z,99.13
2018-12-04T18:21:55.277Z,99.23
2018-12-04T18:24:59.954Z,121.70
2018-12-04T18:28:04.608Z,115.77
2018-12-04T18:31:09.311Z,107.07
2018-12-04T18:34:13.863Z,105.87
2018-12-04T18:37:18.452Z,111.03
2018-12-04T18:40:25.561Z,110.40
2018-12-04T18:43:31.819Z,110.63
2018-12-04T18:46:36.374Z,121.60
2018-12-04T18:49:40.971Z,123.07
2018-12-04T18:52:45.627Z,121.83
2018-12-04T18:55:50.259Z,162.70
2018-12-04T18:58:54.825Z,164.43
2018-12-04T19:01:59.376Z,154.57
2018-12-04T19:05:04.616Z,148.43
2018-12-04T19:08:09.372Z,144.03
2018-12-04T19:11:15.036Z,161.43
2018-12-04T19:14:19.645Z,150.77
2018-12-04T19:17:24.185Z,143.00
2018-12-04T19:20:29.763Z,154.83
2018-12-04T19:23:34.303Z,144.37
2018-12-04T19:26:38.943Z,131.10
2018-12-04T19:29:43.510Z,111.60
2018-12-04T19:32:54.523Z,116.77
2018-12-04T19:35:59.107Z,120.67
2018-12-04T19:39:05.045Z,110.50
2018-12-04T19:42:14.085Z,106.30
2018-12-04T19:45:21.600Z,106.10
2018-12-04T19:48:27.138Z,109.57
2018-12-04T19:51:31.713Z,112.47
2018-12-04T19:54:36.260Z,112.80
2018-12-04T19:57:40.934Z,115.83
2018-12-04T20:00:45.542Z,112.23
2018-12-04T20:03:50.539Z,113.63
2018-12-04T20:06:55.216Z,113.77
2018-12-04T20:09:59.819Z,119.17
2018-12-04T20:13:04.369Z,113.37
2018-12-04T20:16:09.105Z,114.20
2018-12-04T20:19:13.693Z,114.17
2018-12-04T20:22:18.341Z,115.10
2018-12-04T20:25:22.920Z,115.70
2018-12-04T20:28:27.856Z,112.13
2018-12-04T20:31:32.594Z,114.83
2018-12-04T20:34:37.295Z,117.70
2018-12-04T20:37:43.011Z,115.07
2018-12-04T20:40:47.610Z,127.77
2018-12-04T20:43:52.115Z,122.37
2018-12-04T20:46:57.769Z,126.83
2018-12-04T20:50:02.409Z,123.63
2018-12-04T20:53:06.998Z,133.87
2018-12-04T20:56:11.581Z,127.80
2018-12-04T20:59:16.251Z,127.90
2018-12-04T21:02:20.957Z,130.60
2018-12-04T21:05:25.737Z,135.40
2018-12-04T21:08:30.507Z,130.90
2018-12-04T21:11:35.130Z,152.43
2018-12-04T21:14:39.725Z,149.60
2018-12-04T21:17:44.289Z,152.33
2018-12-04T21:20:48.878Z,144.67
2018-12-04T21:23:53.442Z,138.67
2018-12-04T21:26:58.022Z,128.27
2018-12-04T21:30:07.877Z,107.30
2018-12-04T21:33:17.480Z,104.00
2018-12-04T21:36:27.158Z,112.07
2018-12-04T21:39:36.508Z,100.17
2018-12-04T21:42:46.234Z,93.00
2018-12-04T21:45:56.014Z,89.07
2018-12-04T21:49:00.979Z,82.83
2018-12-04T21:52:05.500Z,78.77
2018-12-04T21:55:10.073Z,80.63
2018-12-04T21:58:14.596Z,78.60
2018-12-04T22:01:19.137Z,72.33
2018-12-04T22:04:23.666Z,65.07
2018-12-04T22:07:28.258Z,60.33
2018-12-04T22:10:32.803Z,61.00
2018-12-04T22:13:37.442Z,61.40
2018-12-04T22:16:41.993Z,65.93
2018-12-04T22:19:46.667Z,62.73
2018-12-04T22:22:51.245Z,58.83
2018-12-04T22:25:55.935Z,59.60
2018-12-04T22:29:00.568Z,60.50
2018-12-04T22:32:05.150Z,61.47
2018-12-04T22:35:09.845Z,60.43
2018-12-04T22:38:14.455Z,56.77
2018-12-04T22:41:19.010Z,56.73
2018-12-04T22:44:23.626Z,55.77
2018-12-04T22:47:28.189Z,57.23
2018-12-04T22:50:32.810Z,55.57
2018-12-04T22:53:37.369Z,55.37
2018-12-04T22:56:41.906Z,56.17
2018-12-04T22:59:46.586Z,53.13
2018-12-04T23:02:51.103Z,55.47
2018-12-04T23:05:55.706Z,52.37
2018-12-04T23:09:00.330Z,53.83
2018-12-04T23:12:05.750Z,55.60
2018-12-04T23:15:10.592Z,54.33
2018-12-04T23:18:15.165Z,55.43
2018-12-04T23:21:19.741Z,58.40
2018-12-04T23:24:24.302Z,59.57
2018-12-04T23:27:28.891Z,57.83
2018-12-04T23:30:33.459Z,54.47
2018-12-04T23:33:37.980Z,55.03
2018-12-04T23:36:42.587Z,55.73
2018-12-04T23:39:47.229Z,54.20
2018-12-04T23:42:51.834Z,56.27
2018-12-04T23:45:57.470Z,54.07
2018-12-04T23:49:02.102Z,54.20
2018-12-04T23:52:06.689Z,51.87
2018-12-04T23:55:11.395Z,52.40
2018-12-04T23:58:16.414Z,50.70
